sensor_id;sensor_type;location;lat;lon;timestamp;temperature;humidity
5846;DHT22;2949;50.778;7.094;2022-12-07T00:01:41;4.50;99.90
5846;DHT22;2949;50.778;7.094;2022-12-07T00:04:08;4.40;99.90
5846;DHT22;2949;50.778;7.094;2022-12-07T00:06:37;4.50;99.90
5846;DHT22;2949;50.778;7.094;2022-12-07T00:09:04;4.40;99.90
5846;DHT22;2949;50.778;7.094;2022-12-07T00:11:30;4.50;99.90
5846;DHT22;2949;50.778;7.094;2022-12-07T00:13:58;4.50;99.90
5846;DHT22;2949;50.778;7.094;2022-12-07T00:16:26;4.50;99.90
5846;DHT22;2949;50.778;7.094;2022-12-07T00:18:52;4.50;99.90
5846;DHT22;2949;50.778;7.094;2022-12-07T00:21:20;4.50;99.90
5846;DHT22;2949;50.778;7.094;2022-12-07T00:23:47;4.60;99.90
5846;DHT22;2949;50.778;7.094;2022-12-07T00:26:19;4.60;99.90
5846;DHT22;2949;50.778;7.094;2022-12-07T00:28:47;4.60;99.90
5846;DHT22;2949;50.778;7.094;2022-12-07T00:31:14;4.60;99.90
5846;DHT22;2949;50.778;7.094;2022-12-07T00:33:40;4.60;99.90
5846;DHT22;2949;50.778;7.094;2022-12-07T00:36:08;4.60;99.90
5846;DHT22;2949;50.778;7.094;2022-12-07T00:38:35;4.60;99.90
5846;DHT22;2949;50.778;7.094;2022-12-07T00:41:07;4.60;99.90
5846;DHT22;2949;50.778;7.094;2022-12-07T00:43:33;4.60;99.90
5846;DHT22;2949;50.778;7.094;2022-12-07T00:45:58;4.70;99.90
5846;DHT22;2949;50.778;7.094;2022-12-07T00:48:24;4.70;99.90
5846;DHT22;2949;50.778;7.094;2022-12-07T00:50:50;4.70;99.90
5846;DHT22;2949;50.778;7.094;2022-12-07T00:53:16;4.70;99.90
5846;DHT22;2949;50.778;7.094;2022-12-07T00:55:42;4.70;99.90
5846;DHT22;2949;50.778;7.094;2022-12-07T00:58:07;4.70;99.90
5846;DHT22;2949;50.778;7.094;2022-12-07T01:00:35;4.70;99.90
5846;DHT22;2949;50.778;7.094;2022-12-07T01:03:01;4.70;99.90
5846;DHT22;2949;50.778;7.094;2022-12-07T01:05:27;4.70;99.90
5846;DHT22;2949;50.778;7.094;2022-12-07T01:07:52;4.70;99.90
5846;DHT22;2949;50.778;7.094;2022-12-07T01:10:18;4.70;99.90
5846;DHT22;2949;50.778;7.094;2022-12-07T01:12:43;4.70;99.90
5846;DHT22;2949;50.778;7.094;2022-12-07T01:15:09;4.70;99.90
5846;DHT22;2949;50.778;7.094;2022-12-07T01:17:35;4.70;99.90
5846;DHT22;2949;50.778;7.094;2022-12-07T01:20:01;4.70;99.90
5846;DHT22;2949;50.778;7.094;2022-12-07T01:22:27;4.70;99.90
5846;DHT22;2949;50.778;7.094;2022-12-07T01:24:52;4.70;99.90
5846;DHT22;2949;50.778;7.094;2022-12-07T01:27:18;4.70;99.90
5846;DHT22;2949;50.778;7.094;2022-12-07T01:29:43;4.70;99.90
5846;DHT22;2949;50.778;7.094;2022-12-07T01:32:09;4.70;99.90
5846;DHT22;2949;50.778;7.094;2022-12-07T01:34:35;4.70;99.90
5846;DHT22;2949;50.778;7.094;2022-12-07T01:37:00;4.70;99.90
5846;DHT22;2949;50.778;7.094;2022-12-07T01:39:26;4.70;99.90
5846;DHT22;2949;50.778;7.094;2022-12-07T01:41:52;4.70;99.90
5846;DHT22;2949;50.778;7.094;2022-12-07T01:44:24;4.70;99.90
5846;DHT22;2949;50.778;7.094;2022-12-07T01:46:55;4.70;99.90
5846;DHT22;2949;50.778;7.094;2022-12-07T01:49:45;4.70;99.90
5846;DHT22;2949;50.778;7.094;2022-12-07T01:52:19;4.80;99.90
5846;DHT22;2949;50.778;7.094;2022-12-07T01:54:47;4.80;99.90
5846;DHT22;2949;50.778;7.094;2022-12-07T01:57:15;4.80;99.90
5846;DHT22;2949;50.778;7.094;2022-12-07T01:59:42;4.80;99.90
5846;DHT22;2949;50.778;7.094;2022-12-07T02:02:15;4.80;99.90
5846;DHT22;2949;50.778;7.094;2022-12-07T02:04:43;4.80;99.90
5846;DHT22;2949;50.778;7.094;2022-12-07T02:07:09;4.80;99.90
5846;DHT22;2949;50.778;7.094;2022-12-07T02:09:34;4.80;99.90
5846;DHT22;2949;50.778;7.094;2022-12-07T02:12:00;4.80;99.90
5846;DHT22;2949;50.778;7.094;2022-12-07T02:14:26;4.80;99.90
5846;DHT22;2949;50.778;7.094;2022-12-07T02:17:11;4.80;99.90
5846;DHT22;2949;50.778;7.094;2022-12-07T02:27:56;4.80;99.90
5846;DHT22;2949;50.778;7.094;2022-12-07T02:30:31;4.90;99.90
5846;DHT22;2949;50.778;7.094;2022-12-07T02:33:04;4.90;99.90
5846;DHT22;2949;50.778;7.094;2022-12-07T02:35:44;4.90;99.90
5846;DHT22;2949;50.778;7.094;2022-12-07T02:43:28;4.90;99.90
5846;DHT22;2949;50.778;7.094;2022-12-07T02:46:01;4.90;99.90
5846;DHT22;2949;50.778;7.094;2022-12-07T02:48:27;4.90;99.90
5846;DHT22;2949;50.778;7.094;2022-12-07T02:50:53;4.90;99.90
5846;DHT22;2949;50.778;7.094;2022-12-07T02:56:27;4.90;99.90
5846;DHT22;2949;50.778;7.094;2022-12-07T02:59:37;4.80;99.90
5846;DHT22;2949;50.778;7.094;2022-12-07T03:02:17;4.80;99.90
5846;DHT22;2949;50.778;7.094;2022-12-07T03:10:19;4.80;99.90
5846;DHT22;2949;50.778;7.094;2022-12-07T03:13:04;4.80;99.90
5846;DHT22;2949;50.778;7.094;2022-12-07T03:18:02;4.80;99.90
5846;DHT22;2949;50.778;7.094;2022-12-07T03:20:29;4.80;99.90
5846;DHT22;2949;50.778;7.094;2022-12-07T03:22:57;4.80;99.90
5846;DHT22;2949;50.778;7.094;2022-12-07T03:25:25;4.80;99.90
5846;DHT22;2949;50.778;7.094;2022-12-07T03:27:56;4.80;99.90
5846;DHT22;2949;50.778;7.094;2022-12-07T03:30:30;4.80;99.90
5846;DHT22;2949;50.778;7.094;2022-12-07T03:33:06;4.80;99.90
5846;DHT22;2949;50.778;7.094;2022-12-07T03:35:36;4.80;99.90
5846;DHT22;2949;50.778;7.094;2022-12-07T03:38:23;4.80;99.90
5846;DHT22;2949;50.778;7.094;2022-12-07T03:40:57;4.80;99.90
5846;DHT22;2949;50.778;7.094;2022-12-07T03:43:26;4.80;99.90
5846;DHT22;2949;50.778;7.094;2022-12-07T03:48:40;4.80;99.90
5846;DHT22;2949;50.778;7.094;2022-12-07T03:51:16;4.80;99.90
5846;DHT22;2949;50.778;7.094;2022-12-07T03:54:21;4.80;99.90
5846;DHT22;2949;50.778;7.094;2022-12-07T03:56:44;4.80;99.90
5846;DHT22;2949;50.778;7.094;2022-12-07T03:59:11;4.80;99.90
5846;DHT22;2949;50.778;7.094;2022-12-07T04:01:38;4.90;99.90
5846;DHT22;2949;50.778;7.094;2022-12-07T04:04:03;4.90;99.90
5846;DHT22;2949;50.778;7.094;2022-12-07T04:06:29;4.90;99.90
5846;DHT22;2949;50.778;7.094;2022-12-07T04:08:54;4.90;99.90
5846;DHT22;2949;50.778;7.094;2022-12-07T04:11:20;4.80;99.90
5846;DHT22;2949;50.778;7.094;2022-12-07T04:13:46;4.80;99.90
5846;DHT22;2949;50.778;7.094;2022-12-07T04:16:30;4.80;99.90
5846;DHT22;2949;50.778;7.094;2022-12-07T04:18:55;4.80;99.90
5846;DHT22;2949;50.778;7.094;2022-12-07T04:21:21;4.80;99.90
5846;DHT22;2949;50.778;7.094;2022-12-07T04:23:46;4.80;99.90
5846;DHT22;2949;50.778;7.094;2022-12-07T04:26:12;4.80;99.90
5846;DHT22;2949;50.778;7.094;2022-12-07T04:28:37;4.80;99.90
5846;DHT22;2949;50.778;7.094;2022-12-07T04:31:03;4.80;99.90
5846;DHT22;2949;50.778;7.094;2022-12-07T04:33:28;4.80;99.90
5846;DHT22;2949;50.778;7.094;2022-12-07T04:35:54;4.70;99.90
5846;DHT22;2949;50.778;7.094;2022-12-07T04:38:19;4.70;99.90
5846;DHT22;2949;50.778;7.094;2022-12-07T04:40:45;4.70;99.90
5846;DHT22;2949;50.778;7.094;2022-12-07T04:43:10;4.70;99.90
5846;DHT22;2949;50.778;7.094;2022-12-07T04:45:36;4.70;99.90
5846;DHT22;2949;50.778;7.094;2022-12-07T04:48:01;4.70;99.90
5846;DHT22;2949;50.778;7.094;2022-12-07T04:50:27;4.70;99.90
5846;DHT22;2949;50.778;7.094;2022-12-07T04:52:52;4.70;99.90
5846;DHT22;2949;50.778;7.094;2022-12-07T04:55:18;4.70;99.90
5846;DHT22;2949;50.778;7.094;2022-12-07T04:57:43;4.70;99.90
5846;DHT22;2949;50.778;7.094;2022-12-07T05:00:09;4.60;99.90
5846;DHT22;2949;50.778;7.094;2022-12-07T05:02:35;4.60;99.90
5846;DHT22;2949;50.778;7.094;2022-12-07T05:05:00;4.60;99.90
5846;DHT22;2949;50.778;7.094;2022-12-07T05:07:26;4.60;99.90
5846;DHT22;2949;50.778;7.094;2022-12-07T05:09:51;4.50;99.90
5846;DHT22;2949;50.778;7.094;2022-12-07T05:12:17;4.50;99.90
5846;DHT22;2949;50.778;7.094;2022-12-07T05:14:42;4.40;99.90
5846;DHT22;2949;50.778;7.094;2022-12-07T05:17:08;4.30;99.90
5846;DHT22;2949;50.778;7.094;2022-12-07T05:19:33;4.20;99.90
5846;DHT22;2949;50.778;7.094;2022-12-07T05:21:59;4.20;99.90
5846;DHT22;2949;50.778;7.094;2022-12-07T05:24:24;4.10;99.90
5846;DHT22;2949;50.778;7.094;2022-12-07T05:26:50;4.10;99.90
5846;DHT22;2949;50.778;7.094;2022-12-07T05:29:16;4.20;99.90
5846;DHT22;2949;50.778;7.094;2022-12-07T05:31:43;4.20;99.90
5846;DHT22;2949;50.778;7.094;2022-12-07T05:34:10;4.30;99.90
5846;DHT22;2949;50.778;7.094;2022-12-07T05:36:36;4.30;99.90
5846;DHT22;2949;50.778;7.094;2022-12-07T05:39:02;4.40;99.90
5846;DHT22;2949;50.778;7.094;2022-12-07T05:41:27;4.40;99.90
5846;DHT22;2949;50.778;7.094;2022-12-07T05:44:12;4.50;99.90
5846;DHT22;2949;50.778;7.094;2022-12-07T05:46:37;4.50;99.90
5846;DHT22;2949;50.778;7.094;2022-12-07T05:49:03;4.50;99.90
5846;DHT22;2949;50.778;7.094;2022-12-07T05:51:28;4.50;99.90
5846;DHT22;2949;50.778;7.094;2022-12-07T05:53:54;4.50;99.90
5846;DHT22;2949;50.778;7.094;2022-12-07T05:56:19;4.60;99.90
5846;DHT22;2949;50.778;7.094;2022-12-07T05:58:45;4.60;99.90
5846;DHT22;2949;50.778;7.094;2022-12-07T06:01:43;4.60;99.90
5846;DHT22;2949;50.778;7.094;2022-12-07T06:04:08;4.50;99.90
5846;DHT22;2949;50.778;7.094;2022-12-07T06:06:34;4.60;99.90
5846;DHT22;2949;50.778;7.094;2022-12-07T06:08:59;4.60;99.90
5846;DHT22;2949;50.778;7.094;2022-12-07T06:11:25;4.50;99.90
5846;DHT22;2949;50.778;7.094;2022-12-07T06:14:09;4.50;99.90
5846;DHT22;2949;50.778;7.094;2022-12-07T06:16:34;4.50;99.90
5846;DHT22;2949;50.778;7.094;2022-12-07T06:19:00;4.50;99.90
5846;DHT22;2949;50.778;7.094;2022-12-07T06:21:25;4.50;99.90
5846;DHT22;2949;50.778;7.094;2022-12-07T06:23:52;4.50;99.90
5846;DHT22;2949;50.778;7.094;2022-12-07T06:26:17;4.60;99.90
5846;DHT22;2949;50.778;7.094;2022-12-07T06:28:43;4.50;99.90
5846;DHT22;2949;50.778;7.094;2022-12-07T06:31:08;4.50;99.90
5846;DHT22;2949;50.778;7.094;2022-12-07T06:33:34;4.50;99.90
5846;DHT22;2949;50.778;7.094;2022-12-07T06:36:00;4.50;99.90
5846;DHT22;2949;50.778;7.094;2022-12-07T06:38:25;4.40;99.90
5846;DHT22;2949;50.778;7.094;2022-12-07T06:40:51;4.30;99.90
5846;DHT22;2949;50.778;7.094;2022-12-07T06:43:16;4.20;99.90
5846;DHT22;2949;50.778;7.094;2022-12-07T06:45:42;4.00;99.90
5846;DHT22;2949;50.778;7.094;2022-12-07T06:48:08;4.00;99.90
5846;DHT22;2949;50.778;7.094;2022-12-07T06:50:33;4.00;99.90
5846;DHT22;2949;50.778;7.094;2022-12-07T06:52:59;4.10;99.90
5846;DHT22;2949;50.778;7.094;2022-12-07T06:55:24;4.00;99.90
5846;DHT22;2949;50.778;7.094;2022-12-07T06:57:50;3.90;99.90
5846;DHT22;2949;50.778;7.094;2022-12-07T07:00:15;3.80;99.90
5846;DHT22;2949;50.778;7.094;2022-12-07T07:02:41;3.70;99.90
5846;DHT22;2949;50.778;7.094;2022-12-07T07:05:07;3.70;99.90
5846;DHT22;2949;50.778;7.094;2022-12-07T07:07:32;3.70;99.90
5846;DHT22;2949;50.778;7.094;2022-12-07T07:09:58;3.70;99.90
5846;DHT22;2949;50.778;7.094;2022-12-07T07:12:23;3.70;99.90
5846;DHT22;2949;50.778;7.094;2022-12-07T07:14:49;3.70;99.90
5846;DHT22;2949;50.778;7.094;2022-12-07T07:17:14;3.70;99.90
5846;DHT22;2949;50.778;7.094;2022-12-07T07:19:40;3.70;99.90
5846;DHT22;2949;50.778;7.094;2022-12-07T07:22:05;3.70;99.90
5846;DHT22;2949;50.778;7.094;2022-12-07T07:24:31;3.70;99.90
5846;DHT22;2949;50.778;7.094;2022-12-07T07:26:56;3.80;99.90
5846;DHT22;2949;50.778;7.094;2022-12-07T07:29:22;3.90;99.90
5846;DHT22;2949;50.778;7.094;2022-12-07T07:31:47;3.90;99.90
5846;DHT22;2949;50.778;7.094;2022-12-07T07:34:13;4.00;99.90
5846;DHT22;2949;50.778;7.094;2022-12-07T07:36:39;4.00;99.90
5846;DHT22;2949;50.778;7.094;2022-12-07T07:39:04;4.10;99.90
5846;DHT22;2949;50.778;7.094;2022-12-07T07:41:30;4.20;99.90
5846;DHT22;2949;50.778;7.094;2022-12-07T07:43:56;4.20;99.90
5846;DHT22;2949;50.778;7.094;2022-12-07T07:46:22;4.30;99.90
5846;DHT22;2949;50.778;7.094;2022-12-07T07:48:47;4.40;99.90
5846;DHT22;2949;50.778;7.094;2022-12-07T07:51:13;4.40;99.90
5846;DHT22;2949;50.778;7.094;2022-12-07T07:53:39;4.50;99.90
5846;DHT22;2949;50.778;7.094;2022-12-07T07:56:04;4.50;99.90
5846;DHT22;2949;50.778;7.094;2022-12-07T07:58:30;4.50;99.90
5846;DHT22;2949;50.778;7.094;2022-12-07T08:00:55;4.50;99.90
5846;DHT22;2949;50.778;7.094;2022-12-07T08:03:21;4.60;99.90
5846;DHT22;2949;50.778;7.094;2022-12-07T08:05:46;4.60;99.90
5846;DHT22;2949;50.778;7.094;2022-12-07T08:08:12;4.70;99.90
5846;DHT22;2949;50.778;7.094;2022-12-07T08:10:38;4.70;99.90
5846;DHT22;2949;50.778;7.094;2022-12-07T08:13:04;4.70;99.90
5846;DHT22;2949;50.778;7.094;2022-12-07T08:15:43;4.70;99.90
5846;DHT22;2949;50.778;7.094;2022-12-07T08:18:09;4.70;99.90
5846;DHT22;2949;50.778;7.094;2022-12-07T08:20:36;4.70;99.90
5846;DHT22;2949;50.778;7.094;2022-12-07T08:23:03;4.60;99.90
5846;DHT22;2949;50.778;7.094;2022-12-07T08:25:29;4.60;99.90
5846;DHT22;2949;50.778;7.094;2022-12-07T08:27:55;4.60;99.90
5846;DHT22;2949;50.778;7.094;2022-12-07T08:30:21;4.70;99.90
5846;DHT22;2949;50.778;7.094;2022-12-07T08:32:47;4.80;99.90
5846;DHT22;2949;50.778;7.094;2022-12-07T08:35:14;5.00;99.90
5846;DHT22;2949;50.778;7.094;2022-12-07T08:37:40;5.20;99.90
5846;DHT22;2949;50.778;7.094;2022-12-07T08:40:07;5.30;99.90
5846;DHT22;2949;50.778;7.094;2022-12-07T08:42:33;5.50;99.90
5846;DHT22;2949;50.778;7.094;2022-12-07T08:45:07;5.60;99.90
5846;DHT22;2949;50.778;7.094;2022-12-07T08:47:37;5.70;99.90
5846;DHT22;2949;50.778;7.094;2022-12-07T08:50:06;5.80;99.90
5846;DHT22;2949;50.778;7.094;2022-12-07T08:52:33;5.90;99.90
5846;DHT22;2949;50.778;7.094;2022-12-07T08:54:59;5.90;99.90
5846;DHT22;2949;50.778;7.094;2022-12-07T08:57:27;5.90;99.90
5846;DHT22;2949;50.778;7.094;2022-12-07T08:59:53;5.90;99.90
5846;DHT22;2949;50.778;7.094;2022-12-07T09:02:18;5.70;99.90
5846;DHT22;2949;50.778;7.094;2022-12-07T09:04:44;5.60;99.90
5846;DHT22;2949;50.778;7.094;2022-12-07T09:07:09;5.70;99.90
5846;DHT22;2949;50.778;7.094;2022-12-07T09:09:35;5.80;99.90
5846;DHT22;2949;50.778;7.094;2022-12-07T09:12:00;6.10;99.90
5846;DHT22;2949;50.778;7.094;2022-12-07T09:14:26;6.50;99.90
5846;DHT22;2949;50.778;7.094;2022-12-07T09:16:51;6.60;99.90
5846;DHT22;2949;50.778;7.094;2022-12-07T09:19:17;6.70;99.90
5846;DHT22;2949;50.778;7.094;2022-12-07T09:21:43;6.80;99.90
5846;DHT22;2949;50.778;7.094;2022-12-07T09:24:08;6.80;99.90
5846;DHT22;2949;50.778;7.094;2022-12-07T09:26:34;6.80;99.90
5846;DHT22;2949;50.778;7.094;2022-12-07T09:29:01;6.80;99.90
5846;DHT22;2949;50.778;7.094;2022-12-07T09:31:27;6.70;99.90
5846;DHT22;2949;50.778;7.094;2022-12-07T09:34:00;6.60;99.90
5846;DHT22;2949;50.778;7.094;2022-12-07T09:36:26;6.50;99.90
5846;DHT22;2949;50.778;7.094;2022-12-07T09:38:52;6.40;99.90
5846;DHT22;2949;50.778;7.094;2022-12-07T09:41:18;6.20;99.90
5846;DHT22;2949;50.778;7.094;2022-12-07T09:43:44;6.10;99.90
5846;DHT22;2949;50.778;7.094;2022-12-07T09:46:14;6.20;99.90
5846;DHT22;2949;50.778;7.094;2022-12-07T09:48:42;6.20;99.90
5846;DHT22;2949;50.778;7.094;2022-12-07T09:51:17;6.30;99.90
5846;DHT22;2949;50.778;7.094;2022-12-07T09:53:43;6.40;99.90
5846;DHT22;2949;50.778;7.094;2022-12-07T09:56:17;6.60;99.90
5846;DHT22;2949;50.778;7.094;2022-12-07T09:58:44;6.80;99.90
5846;DHT22;2949;50.778;7.094;2022-12-07T10:01:14;6.80;99.90
5846;DHT22;2949;50.778;7.094;2022-12-07T10:03:45;6.80;99.90
5846;DHT22;2949;50.778;7.094;2022-12-07T10:06:13;6.80;99.90
5846;DHT22;2949;50.778;7.094;2022-12-07T10:08:39;6.70;99.90
5846;DHT22;2949;50.778;7.094;2022-12-07T10:11:06;6.70;99.90
5846;DHT22;2949;50.778;7.094;2022-12-07T10:13:51;6.60;99.90
5846;DHT22;2949;50.778;7.094;2022-12-07T10:18:50;6.50;99.90
5846;DHT22;2949;50.778;7.094;2022-12-07T10:21:22;6.50;99.90
5846;DHT22;2949;50.778;7.094;2022-12-07T10:26:40;6.50;99.90
5846;DHT22;2949;50.778;7.094;2022-12-07T10:29:22;6.60;99.90
5846;DHT22;2949;50.778;7.094;2022-12-07T10:32:05;6.60;99.90
5846;DHT22;2949;50.778;7.094;2022-12-07T10:34:34;6.50;99.90
5846;DHT22;2949;50.778;7.094;2022-12-07T10:42:20;6.50;99.90
5846;DHT22;2949;50.778;7.094;2022-12-07T10:44:47;6.40;99.90
5846;DHT22;2949;50.778;7.094;2022-12-07T10:53:01;6.70;99.90
5846;DHT22;2949;50.778;7.094;2022-12-07T10:58:39;6.90;99.90
5846;DHT22;2949;50.778;7.094;2022-12-07T11:01:33;7.00;99.90
5846;DHT22;2949;50.778;7.094;2022-12-07T11:04:23;7.00;99.90
5846;DHT22;2949;50.778;7.094;2022-12-07T11:23:36;6.80;99.90
5846;DHT22;2949;50.778;7.094;2022-12-07T11:26:23;6.90;99.90
5846;DHT22;2949;50.778;7.094;2022-12-07T11:36:48;7.90;99.90
5846;DHT22;2949;50.778;7.094;2022-12-07T11:39:33;8.00;99.90
5846;DHT22;2949;50.778;7.094;2022-12-07T11:42:07;8.30;99.90
5846;DHT22;2949;50.778;7.094;2022-12-07T11:44:53;8.20;99.90
5846;DHT22;2949;50.778;7.094;2022-12-07T11:50:16;8.00;99.90
5846;DHT22;2949;50.778;7.094;2022-12-07T12:00:44;7.30;99.90
5846;DHT22;2949;50.778;7.094;2022-12-07T12:03:14;7.20;99.90
5846;DHT22;2949;50.778;7.094;2022-12-07T12:05:41;7.20;99.90
5846;DHT22;2949;50.778;7.094;2022-12-07T12:08:14;7.20;99.90
5846;DHT22;2949;50.778;7.094;2022-12-07T12:10:57;7.20;99.90
5846;DHT22;2949;50.778;7.094;2022-12-07T12:13:54;7.30;99.90
5846;DHT22;2949;50.778;7.094;2022-12-07T12:17:03;7.40;99.90
5846;DHT22;2949;50.778;7.094;2022-12-07T12:19:41;7.40;99.90
5846;DHT22;2949;50.778;7.094;2022-12-07T12:22:20;7.60;99.90
5846;DHT22;2949;50.778;7.094;2022-12-07T12:24:50;7.80;99.90
5846;DHT22;2949;50.778;7.094;2022-12-07T12:27:27;8.10;99.90
5846;DHT22;2949;50.778;7.094;2022-12-07T12:29:57;8.40;99.90
5846;DHT22;2949;50.778;7.094;2022-12-07T12:32:41;8.50;99.90
5846;DHT22;2949;50.778;7.094;2022-12-07T12:37:53;8.40;99.90
5846;DHT22;2949;50.778;7.094;2022-12-07T12:42:57;8.40;99.90
5846;DHT22;2949;50.778;7.094;2022-12-07T12:45:27;8.40;99.90
5846;DHT22;2949;50.778;7.094;2022-12-07T12:48:03;8.30;99.90
5846;DHT22;2949;50.778;7.094;2022-12-07T12:50:30;8.10;99.90
5846;DHT22;2949;50.778;7.094;2022-12-07T12:53:15;7.90;99.90
5846;DHT22;2949;50.778;7.094;2022-12-07T12:58:36;7.60;99.90
5846;DHT22;2949;50.778;7.094;2022-12-07T13:03:54;7.40;99.90
5846;DHT22;2949;50.778;7.094;2022-12-07T13:06:34;7.40;99.90
5846;DHT22;2949;50.778;7.094;2022-12-07T13:09:01;7.40;99.90
5846;DHT22;2949;50.778;7.094;2022-12-07T13:11:36;7.40;99.90
5846;DHT22;2949;50.778;7.094;2022-12-07T13:20:05;7.30;99.90
5846;DHT22;2949;50.778;7.094;2022-12-07T13:25:11;7.20;99.90
5846;DHT22;2949;50.778;7.094;2022-12-07T13:27:37;7.10;99.90
5846;DHT22;2949;50.778;7.094;2022-12-07T13:30:17;7.10;99.90
5846;DHT22;2949;50.778;7.094;2022-12-07T13:32:51;7.00;99.90
5846;DHT22;2949;50.778;7.094;2022-12-07T13:35:32;7.00;99.90
5846;DHT22;2949;50.778;7.094;2022-12-07T13:37:59;6.90;99.90
5846;DHT22;2949;50.778;7.094;2022-12-07T13:40:26;6.80;99.90
5846;DHT22;2949;50.778;7.094;2022-12-07T13:43:04;6.80;99.90
5846;DHT22;2949;50.778;7.094;2022-12-07T13:45:32;6.80;99.90
5846;DHT22;2949;50.778;7.094;2022-12-07T13:48:24;6.80;99.90
5846;DHT22;2949;50.778;7.094;2022-12-07T13:50:54;6.80;99.90
5846;DHT22;2949;50.778;7.094;2022-12-07T13:53:21;6.70;99.90
5846;DHT22;2949;50.778;7.094;2022-12-07T13:55:47;6.70;99.90
5846;DHT22;2949;50.778;7.094;2022-12-07T13:58:14;6.60;99.90
5846;DHT22;2949;50.778;7.094;2022-12-07T14:00:40;6.60;99.90
5846;DHT22;2949;50.778;7.094;2022-12-07T14:05:39;6.60;99.90
5846;DHT22;2949;50.778;7.094;2022-12-07T14:10:40;6.60;99.90
5846;DHT22;2949;50.778;7.094;2022-12-07T14:13:39;6.60;99.90
5846;DHT22;2949;50.778;7.094;2022-12-07T14:18:45;6.60;99.90
5846;DHT22;2949;50.778;7.094;2022-12-07T14:21:20;6.50;99.90
5846;DHT22;2949;50.778;7.094;2022-12-07T14:24:14;6.50;99.90
5846;DHT22;2949;50.778;7.094;2022-12-07T14:26:40;6.40;99.90
5846;DHT22;2949;50.778;7.094;2022-12-07T14:31:51;6.30;99.90
5846;DHT22;2949;50.778;7.094;2022-12-07T14:34:20;6.20;99.90
5846;DHT22;2949;50.778;7.094;2022-12-07T14:36:46;6.10;99.90
5846;DHT22;2949;50.778;7.094;2022-12-07T14:39:11;6.00;99.90
5846;DHT22;2949;50.778;7.094;2022-12-07T14:41:37;6.00;99.90
5846;DHT22;2949;50.778;7.094;2022-12-07T14:44:22;5.90;99.90
5846;DHT22;2949;50.778;7.094;2022-12-07T14:46:49;5.80;99.90
5846;DHT22;2949;50.778;7.094;2022-12-07T14:49:15;5.80;99.90
5846;DHT22;2949;50.778;7.094;2022-12-07T14:51:42;5.70;99.90
5846;DHT22;2949;50.778;7.094;2022-12-07T14:54:15;5.70;99.90
5846;DHT22;2949;50.778;7.094;2022-12-07T14:56:42;5.60;99.90
5846;DHT22;2949;50.778;7.094;2022-12-07T14:59:09;5.60;99.90
5846;DHT22;2949;50.778;7.094;2022-12-07T15:01:35;5.50;99.90
5846;DHT22;2949;50.778;7.094;2022-12-07T15:04:01;5.50;99.90
5846;DHT22;2949;50.778;7.094;2022-12-07T15:06:26;5.40;99.90
5846;DHT22;2949;50.778;7.094;2022-12-07T15:08:52;5.40;99.90
5846;DHT22;2949;50.778;7.094;2022-12-07T15:11:18;5.40;99.90
5846;DHT22;2949;50.778;7.094;2022-12-07T15:13:44;5.40;99.90
5846;DHT22;2949;50.778;7.094;2022-12-07T15:16:28;5.40;99.90
5846;DHT22;2949;50.778;7.094;2022-12-07T15:18:54;5.30;99.90
5846;DHT22;2949;50.778;7.094;2022-12-07T15:21:19;5.30;99.90
5846;DHT22;2949;50.778;7.094;2022-12-07T15:23:46;5.30;99.90
5846;DHT22;2949;50.778;7.094;2022-12-07T15:26:12;5.20;99.90
5846;DHT22;2949;50.778;7.094;2022-12-07T15:28:37;5.20;99.90
5846;DHT22;2949;50.778;7.094;2022-12-07T15:31:03;5.20;99.90
5846;DHT22;2949;50.778;7.094;2022-12-07T15:33:29;5.20;99.90
5846;DHT22;2949;50.778;7.094;2022-12-07T15:35:54;5.10;99.90
5846;DHT22;2949;50.778;7.094;2022-12-07T15:38:20;5.10;99.90
5846;DHT22;2949;50.778;7.094;2022-12-07T15:40:48;5.10;99.90
5846;DHT22;2949;50.778;7.094;2022-12-07T15:43:14;5.10;99.90
5846;DHT22;2949;50.778;7.094;2022-12-07T15:46:12;5.10;99.90
5846;DHT22;2949;50.778;7.094;2022-12-07T15:48:37;5.10;99.90
5846;DHT22;2949;50.778;7.094;2022-12-07T15:51:07;5.00;99.90
5846;DHT22;2949;50.778;7.094;2022-12-07T15:53:33;5.00;99.90
5846;DHT22;2949;50.778;7.094;2022-12-07T15:55:59;5.00;99.90
5846;DHT22;2949;50.778;7.094;2022-12-07T15:58:25;5.00;99.90
5846;DHT22;2949;50.778;7.094;2022-12-07T16:00:50;5.00;99.90
5846;DHT22;2949;50.778;7.094;2022-12-07T16:03:16;5.00;99.90
5846;DHT22;2949;50.778;7.094;2022-12-07T16:05:42;5.00;99.90
5846;DHT22;2949;50.778;7.094;2022-12-07T16:08:13;5.00;99.90
5846;DHT22;2949;50.778;7.094;2022-12-07T16:10:39;5.00;99.90
5846;DHT22;2949;50.778;7.094;2022-12-07T16:13:07;5.00;99.90
5846;DHT22;2949;50.778;7.094;2022-12-07T16:15:33;5.00;99.90
5846;DHT22;2949;50.778;7.094;2022-12-07T16:17:58;5.00;99.90
5846;DHT22;2949;50.778;7.094;2022-12-07T16:20:23;5.00;99.90
5846;DHT22;2949;50.778;7.094;2022-12-07T16:22:51;5.00;99.90
5846;DHT22;2949;50.778;7.094;2022-12-07T16:25:17;4.90;99.90
5846;DHT22;2949;50.778;7.094;2022-12-07T16:27:43;4.90;99.90
5846;DHT22;2949;50.778;7.094;2022-12-07T16:30:08;4.90;99.90
5846;DHT22;2949;50.778;7.094;2022-12-07T16:32:34;5.00;99.90
5846;DHT22;2949;50.778;7.094;2022-12-07T16:35:00;5.00;99.90
5846;DHT22;2949;50.778;7.094;2022-12-07T16:37:25;5.10;99.90
5846;DHT22;2949;50.778;7.094;2022-12-07T16:39:50;5.10;99.90
5846;DHT22;2949;50.778;7.094;2022-12-07T16:42:16;5.10;99.90
5846;DHT22;2949;50.778;7.094;2022-12-07T16:44:41;5.10;99.90
5846;DHT22;2949;50.778;7.094;2022-12-07T16:47:07;5.10;99.90
5846;DHT22;2949;50.778;7.094;2022-12-07T16:49:32;5.00;99.90
5846;DHT22;2949;50.778;7.094;2022-12-07T16:51:58;5.00;99.90
5846;DHT22;2949;50.778;7.094;2022-12-07T16:54:23;5.00;99.90
5846;DHT22;2949;50.778;7.094;2022-12-07T16:56:49;5.00;99.90
5846;DHT22;2949;50.778;7.094;2022-12-07T16:59:14;5.00;99.90
5846;DHT22;2949;50.778;7.094;2022-12-07T17:01:40;4.90;99.90
5846;DHT22;2949;50.778;7.094;2022-12-07T17:04:06;4.90;99.90
5846;DHT22;2949;50.778;7.094;2022-12-07T17:06:32;4.80;99.90
5846;DHT22;2949;50.778;7.094;2022-12-07T17:08:58;4.80;99.90
5846;DHT22;2949;50.778;7.094;2022-12-07T17:11:26;4.70;99.90
5846;DHT22;2949;50.778;7.094;2022-12-07T17:13:52;4.70;99.90
5846;DHT22;2949;50.778;7.094;2022-12-07T17:16:37;4.70;99.90
5846;DHT22;2949;50.778;7.094;2022-12-07T17:19:08;4.70;99.90
5846;DHT22;2949;50.778;7.094;2022-12-07T17:21:34;4.60;99.90
5846;DHT22;2949;50.778;7.094;2022-12-07T17:24:00;4.60;99.90
5846;DHT22;2949;50.778;7.094;2022-12-07T17:26:27;4.60;99.90
5846;DHT22;2949;50.778;7.094;2022-12-07T17:28:53;4.60;99.90
5846;DHT22;2949;50.778;7.094;2022-12-07T17:31:20;4.50;99.90
5846;DHT22;2949;50.778;7.094;2022-12-07T17:33:46;4.50;99.90
5846;DHT22;2949;50.778;7.094;2022-12-07T17:36:17;4.50;99.90
5846;DHT22;2949;50.778;7.094;2022-12-07T17:38:43;4.50;99.90
5846;DHT22;2949;50.778;7.094;2022-12-07T17:41:11;4.50;99.90
5846;DHT22;2949;50.778;7.094;2022-12-07T17:43:37;4.50;99.90
5846;DHT22;2949;50.778;7.094;2022-12-07T17:46:08;4.50;99.90
5846;DHT22;2949;50.778;7.094;2022-12-07T17:48:34;4.50;99.90
5846;DHT22;2949;50.778;7.094;2022-12-07T17:51:00;4.50;99.90
5846;DHT22;2949;50.778;7.094;2022-12-07T17:53:48;4.50;99.90
5846;DHT22;2949;50.778;7.094;2022-12-07T17:56:13;4.50;99.90
5846;DHT22;2949;50.778;7.094;2022-12-07T17:58:39;4.50;99.90
5846;DHT22;2949;50.778;7.094;2022-12-07T18:01:08;4.50;99.90
5846;DHT22;2949;50.778;7.094;2022-12-07T18:03:34;4.60;99.90
5846;DHT22;2949;50.778;7.094;2022-12-07T18:06:00;4.60;99.90
5846;DHT22;2949;50.778;7.094;2022-12-07T18:08:26;4.60;99.90
5846;DHT22;2949;50.778;7.094;2022-12-07T18:10:58;4.60;99.90
5846;DHT22;2949;50.778;7.094;2022-12-07T18:13:23;4.60;99.90
5846;DHT22;2949;50.778;7.094;2022-12-07T18:16:02;4.60;99.90
5846;DHT22;2949;50.778;7.094;2022-12-07T18:18:28;4.60;99.90
5846;DHT22;2949;50.778;7.094;2022-12-07T18:20:53;4.60;99.90